createdAt,value
2018-01-30T00:00:01.436Z,94.40
2018-01-30T00:02:29.716Z,94.50
2018-01-30T00:04:58.237Z,94.40
2018-01-30T00:07:25.660Z,94.40
2018-01-30T00:09:53.860Z,94.80
2018-01-30T00:12:21.644Z,94.40
2018-01-30T00:14:49.068Z,94.40
2018-01-30T00:17:16.492Z,94.50
2018-01-30T00:19:44.081Z,94.50
2018-01-30T00:22:11.536Z,94.50
2018-01-30T00:24:38.959Z,94.40
2018-01-30T00:27:06.421Z,94.40
2018-01-30T00:29:33.844Z,94.50
2018-01-30T00:32:01.299Z,94.80
2018-01-30T00:34:28.728Z,94.50
2018-01-30T00:36:56.567Z,94.60
2018-01-30T00:39:24.764Z,94.70
2018-01-30T00:50:28.368Z,94.60
2018-01-30T00:52:55.906Z,94.60
2018-01-30T00:55:23.348Z,94.60
2018-01-30T00:57:50.800Z,94.60
2018-01-30T01:00:18.259Z,94.60
2018-01-30T01:02:45.685Z,94.60
2018-01-30T01:05:13.117Z,94.60
2018-01-30T01:07:40.876Z,94.60
2018-01-30T01:10:08.302Z,94.60
2018-01-30T01:12:35.728Z,94.60
2018-01-30T01:15:07.759Z,94.60
2018-01-30T01:17:35.545Z,94.60
2018-01-30T01:20:02.992Z,94.60
2018-01-30T01:22:30.423Z,94.60
2018-01-30T01:24:57.868Z,94.70
2018-01-30T01:27:25.293Z,94.80
2018-01-30T01:29:53.703Z,94.90
2018-01-30T01:32:21.196Z,94.90
2018-01-30T01:34:48.624Z,94.90
2018-01-30T01:37:16.080Z,94.90
2018-01-30T01:39:43.514Z,94.90
2018-01-30T01:42:11.720Z,94.90
2018-01-30T01:44:39.152Z,94.90
2018-01-30T01:47:07.598Z,94.90
2018-01-30T01:49:35.033Z,94.90
2018-01-30T01:52:02.608Z,95.20
2018-01-30T01:54:30.036Z,94.90
2018-01-30T01:56:57.488Z,94.80
2018-01-30T01:59:24.911Z,94.80
2018-01-30T02:01:52.364Z,94.80
2018-01-30T02:04:20.555Z,94.90
2018-01-30T02:06:49.272Z,94.90
2018-01-30T02:09:16.800Z,94.90
2018-01-30T02:11:44.228Z,94.90
2018-01-30T02:14:12.460Z,95.10
2018-01-30T02:16:39.884Z,95.00
2018-01-30T02:19:07.392Z,95.10
2018-01-30T02:21:34.835Z,95.10
2018-01-30T02:24:02.488Z,95.10
2018-01-30T02:26:29.925Z,95.10
2018-01-30T02:28:57.348Z,95.20
2018-01-30T02:31:26.113Z,95.10
2018-01-30T02:33:53.542Z,95.20
2018-01-30T02:36:20.995Z,95.20
2018-01-30T02:38:48.425Z,95.20
2018-01-30T02:44:10.337Z,95.40
2018-01-30T02:46:37.917Z,95.40
2018-01-30T02:49:06.132Z,95.50
2018-01-30T02:51:33.590Z,95.50
2018-01-30T02:54:01.011Z,95.50
2018-01-30T02:56:29.236Z,95.50
2018-01-30T02:58:57.435Z,95.50
2018-01-30T03:01:27.338Z,95.50
2018-01-30T03:03:54.777Z,95.50
2018-01-30T03:06:22.281Z,95.60
2018-01-30T03:08:49.708Z,95.60
2018-01-30T03:11:17.340Z,95.60
2018-01-30T03:14:05.548Z,95.60
2018-01-30T03:16:33.000Z,95.70
2018-01-30T03:19:00.437Z,95.70
2018-01-30T03:21:28.016Z,95.80
2018-01-30T03:23:55.447Z,95.80
2018-01-30T03:26:22.909Z,95.90
2018-01-30T03:28:50.340Z,95.90
2018-01-30T03:31:17.800Z,95.90
2018-01-30T03:33:45.292Z,95.90
2018-01-30T03:36:12.729Z,96.00
2018-01-30T03:38:40.288Z,96.00
2018-01-30T03:41:07.725Z,96.00
2018-01-30T03:43:39.117Z,96.10
2018-01-30T03:46:06.577Z,96.10
2018-01-30T03:48:34.323Z,96.10
2018-01-30T03:51:01.753Z,96.20
2018-01-30T03:53:29.956Z,96.30
2018-01-30T03:55:57.590Z,96.20
2018-01-30T03:58:25.021Z,96.30
2018-01-30T04:00:53.222Z,96.30
2018-01-30T04:03:20.687Z,96.30
2018-01-30T04:09:02.093Z,96.30
2018-01-30T04:11:29.507Z,96.40
2018-01-30T04:13:57.856Z,96.40
2018-01-30T04:16:25.297Z,96.40
2018-01-30T04:18:52.804Z,96.40
2018-01-30T04:21:21.003Z,96.40
2018-01-30T04:23:48.464Z,96.40
2018-01-30T04:26:15.896Z,96.40
2018-01-30T04:28:44.120Z,96.60
2018-01-30T04:31:11.572Z,96.60
2018-01-30T04:33:39.873Z,96.60
2018-01-30T04:36:07.303Z,96.50
2018-01-30T04:38:34.805Z,96.60
2018-01-30T04:41:02.238Z,96.60
2018-01-30T04:43:29.859Z,96.60
2018-01-30T04:45:59.211Z,96.60
2018-01-30T04:48:26.678Z,96.60
2018-01-30T04:50:54.112Z,96.80
2018-01-30T04:53:21.542Z,96.40
2018-01-30T04:55:49.151Z,96.40
2018-01-30T04:58:16.588Z,96.40
2018-01-30T05:00:44.021Z,96.50
2018-01-30T05:03:30.848Z,96.40
2018-01-30T05:05:58.276Z,96.40
2018-01-30T05:08:25.716Z,96.40
2018-01-30T05:10:55.350Z,96.40
2018-01-30T05:13:24.081Z,96.40
2018-01-30T05:15:51.512Z,96.40
2018-01-30T05:18:18.947Z,96.40
2018-01-30T05:20:46.399Z,96.30
2018-01-30T05:26:09.894Z,96.30
2018-01-30T05:28:37.389Z,96.30
2018-01-30T05:31:04.820Z,96.20
2018-01-30T05:33:32.393Z,96.20
2018-01-30T05:35:59.853Z,96.20
2018-01-30T05:38:27.307Z,96.30
2018-01-30T05:40:55.704Z,96.30
2018-01-30T05:43:23.251Z,96.30
2018-01-30T05:46:03.455Z,96.30
2018-01-30T05:48:31.685Z,96.20
2018-01-30T05:50:59.138Z,96.20
2018-01-30T05:53:28.580Z,96.20
2018-01-30T05:55:56.788Z,96.30
2018-01-30T05:58:24.360Z,96.20
2018-01-30T06:00:51.828Z,96.20
2018-01-30T06:03:19.272Z,96.20
2018-01-30T06:05:46.696Z,96.20
2018-01-30T06:08:14.909Z,96.50
2018-01-30T06:10:42.372Z,96.20
2018-01-30T06:13:09.828Z,96.20
2018-01-30T06:15:37.342Z,96.20
2018-01-30T06:18:05.582Z,96.20
2018-01-30T06:20:33.160Z,96.20
2018-01-30T06:23:01.558Z,96.20
2018-01-30T06:25:34.808Z,96.20
2018-01-30T06:28:02.252Z,96.20
2018-01-30T06:30:29.689Z,96.20
2018-01-30T06:32:57.181Z,96.20
2018-01-30T06:35:24.648Z,96.30
2018-01-30T06:37:52.091Z,96.20
2018-01-30T06:40:19.519Z,96.30
2018-01-30T06:42:46.999Z,96.30
2018-01-30T06:45:14.972Z,96.30
2018-01-30T06:47:42.410Z,96.30
2018-01-30T06:50:09.840Z,96.30
2018-01-30T06:52:38.485Z,96.20
2018-01-30T06:55:05.933Z,96.20
2018-01-30T06:57:33.368Z,96.20
2018-01-30T07:03:07.201Z,96.30
2018-01-30T07:05:34.653Z,96.30
2018-01-30T07:08:02.294Z,96.30
2018-01-30T07:10:30.496Z,96.30
2018-01-30T07:12:57.963Z,96.60
2018-01-30T07:15:25.411Z,96.30
2018-01-30T07:17:53.193Z,96.30
2018-01-30T07:20:20.636Z,96.30
2018-01-30T07:22:48.071Z,96.30
2018-01-30T07:25:15.609Z,96.30
2018-01-30T07:27:43.817Z,96.30
2018-01-30T07:30:11.612Z,96.30
2018-01-30T07:32:39.045Z,96.30
2018-01-30T07:35:06.488Z,96.30
2018-01-30T07:37:34.240Z,96.40
2018-01-30T07:40:02.491Z,96.40
2018-01-30T07:42:29.970Z,96.40
2018-01-30T07:44:58.205Z,96.40
2018-01-30T07:47:25.644Z,96.40
2018-01-30T07:49:53.119Z,96.40
2018-01-30T07:52:20.569Z,96.40
2018-01-30T07:54:48.248Z,96.30
2018-01-30T07:57:15.712Z,96.30
2018-01-30T07:59:43.211Z,96.40
2018-01-30T08:02:11.069Z,96.30
2018-01-30T08:04:39.309Z,96.30
2018-01-30T08:07:06.748Z,96.30
2018-01-30T08:09:34.204Z,96.30
2018-01-30T08:12:01.825Z,96.30
2018-01-30T08:14:29.260Z,96.30
2018-01-30T08:16:57.474Z,96.60
2018-01-30T08:19:24.972Z,96.30
2018-01-30T08:21:52.456Z,96.40
2018-01-30T08:24:20.682Z,96.40
2018-01-30T08:26:48.129Z,96.40
2018-01-30T08:29:15.624Z,96.40
2018-01-30T08:31:43.065Z,96.50
2018-01-30T08:34:10.664Z,96.40
2018-01-30T08:36:38.871Z,96.40
2018-01-30T08:39:06.381Z,96.40
2018-01-30T08:41:33.821Z,96.40
2018-01-30T08:44:01.272Z,96.40
2018-01-30T08:46:28.846Z,96.40
2018-01-30T08:48:56.273Z,96.40
2018-01-30T08:51:24.688Z,96.40
2018-01-30T08:53:52.154Z,96.40
2018-01-30T08:56:19.592Z,96.50
2018-01-30T08:58:47.052Z,96.40
2018-01-30T09:01:14.850Z,96.40
2018-01-30T09:03:42.325Z,96.40
2018-01-30T09:06:09.756Z,96.30
2018-01-30T09:08:37.224Z,96.30
2018-01-30T09:11:05.894Z,96.30
2018-01-30T09:13:33.333Z,96.20
2018-01-30T09:16:00.763Z,96.20
2018-01-30T09:18:28.649Z,96.30
2018-01-30T09:20:57.588Z,96.20
2018-01-30T09:23:25.797Z,96.10
2018-01-30T09:25:53.287Z,96.10
2018-01-30T09:28:20.727Z,96.10
2018-01-30T09:30:48.236Z,96.10
2018-01-30T09:33:16.468Z,96.10
2018-01-30T09:35:43.916Z,96.10
2018-01-30T09:38:11.504Z,96.00
2018-01-30T09:40:39.001Z,96.00
2018-01-30T09:43:07.252Z,96.00
2018-01-30T09:45:34.691Z,95.90
2018-01-30T09:48:02.136Z,95.90
2018-01-30T09:50:30.002Z,95.90
2018-01-30T09:52:57.468Z,95.80
2018-01-30T09:55:24.961Z,95.80
2018-01-30T10:00:56.896Z,95.80
2018-01-30T10:03:24.336Z,95.80
2018-01-30T10:05:51.808Z,95.70
2018-01-30T10:08:19.255Z,95.70
2018-01-30T10:10:46.716Z,95.70
2018-01-30T10:13:16.181Z,95.70
2018-01-30T10:15:44.486Z,95.60
2018-01-30T10:18:11.924Z,95.60
2018-01-30T10:20:40.148Z,95.60
2018-01-30T10:23:07.659Z,95.60
2018-01-30T10:25:36.611Z,95.60
2018-01-30T10:28:04.058Z,95.60
2018-01-30T10:30:31.492Z,95.80
2018-01-30T10:32:59.033Z,95.40
2018-01-30T10:35:26.484Z,95.30
2018-01-30T10:37:53.951Z,95.40
2018-01-30T10:40:21.384Z,95.30
2018-01-30T10:42:49.615Z,95.20
2018-01-30T10:45:17.063Z,95.10
2018-01-30T10:47:44.892Z,95.00
2018-01-30T10:50:14.005Z,95.00
2018-01-30T10:52:41.476Z,95.00
2018-01-30T10:55:08.927Z,95.00
2018-01-30T10:57:36.724Z,95.00
2018-01-30T11:00:04.180Z,95.00
2018-01-30T11:02:31.665Z,95.00
2018-01-30T11:04:59.673Z,95.20
2018-01-30T11:07:27.119Z,94.80
2018-01-30T11:09:55.481Z,94.70
2018-01-30T11:12:23.759Z,94.30
2018-01-30T11:14:51.200Z,94.30
2018-01-30T11:17:18.978Z,94.20
2018-01-30T11:19:46.416Z,94.20
2018-01-30T11:22:13.868Z,94.40
2018-01-30T11:24:45.332Z,94.10
2018-01-30T11:27:12.795Z,94.00
2018-01-30T11:29:40.266Z,93.60
2018-01-30T11:32:08.508Z,93.20
2018-01-30T11:34:36.024Z,93.20
2018-01-30T11:37:03.456Z,93.10
2018-01-30T11:39:31.792Z,92.80
2018-01-30T11:41:59.257Z,92.70
2018-01-30T11:44:26.705Z,92.60
2018-01-30T11:46:54.203Z,92.60
2018-01-30T11:49:22.416Z,92.30
2018-01-30T11:51:49.892Z,92.30
2018-01-30T11:54:17.387Z,92.10
2018-01-30T11:56:44.972Z,92.00
2018-01-30T11:59:13.204Z,91.60
2018-01-30T12:01:40.665Z,91.60
2018-01-30T12:04:08.125Z,91.40
2018-01-30T12:06:35.584Z,91.10
2018-01-30T12:09:23.853Z,90.90
2018-01-30T12:11:51.410Z,90.90
2018-01-30T12:14:19.156Z,90.60
2018-01-30T12:16:46.596Z,90.60
2018-01-30T12:19:14.089Z,90.70
2018-01-30T12:21:41.560Z,90.70
2018-01-30T12:24:09.764Z,90.70
2018-01-30T12:26:37.201Z,90.70
2018-01-30T12:29:04.756Z,90.60
2018-01-30T12:31:32.956Z,90.70
2018-01-30T12:34:00.392Z,90.70
2018-01-30T12:36:28.024Z,90.70
2018-01-30T12:38:55.459Z,90.40
2018-01-30T12:41:22.919Z,90.30
2018-01-30T12:43:50.363Z,90.20
2018-01-30T12:46:19.344Z,90.10
2018-01-30T12:48:46.790Z,90.10
2018-01-30T12:51:14.221Z,90.10
2018-01-30T12:53:42.760Z,90.00
2018-01-30T12:56:10.196Z,90.00
2018-01-30T12:58:38.527Z,89.90
2018-01-30T13:01:06.003Z,89.30
2018-01-30T13:03:34.212Z,89.50
2018-01-30T13:06:01.691Z,89.50
2018-01-30T13:08:29.168Z,89.50
2018-01-30T13:11:00.588Z,89.50
2018-01-30T13:13:28.025Z,89.60
2018-01-30T13:15:55.462Z,89.50
2018-01-30T13:18:27.594Z,89.10
2018-01-30T13:20:55.345Z,89.00
2018-01-30T13:23:22.784Z,88.50
2018-01-30T13:25:50.500Z,88.30
2018-01-30T13:28:18.808Z,88.00
2018-01-30T13:30:46.255Z,88.00
2018-01-30T13:33:13.783Z,87.80
2018-01-30T13:35:41.232Z,87.80
2018-01-30T13:38:08.671Z,87.80
2018-01-30T13:40:36.133Z,87.70
2018-01-30T13:43:03.573Z,87.70
2018-01-30T13:45:31.105Z,87.80
2018-01-30T13:47:59.309Z,87.50
2018-01-30T13:50:26.776Z,87.50
2018-01-30T13:52:54.222Z,87.10
2018-01-30T13:55:21.679Z,87.00
2018-01-30T13:57:49.148Z,86.70
2018-01-30T14:00:30.760Z,86.40
2018-01-30T14:02:58.193Z,85.60
2018-01-30T14:05:25.965Z,85.20
2018-01-30T14:07:53.401Z,85.20
2018-01-30T14:10:20.840Z,84.80
2018-01-30T14:12:49.176Z,84.50
2018-01-30T14:15:16.625Z,84.40
2018-01-30T14:17:44.133Z,84.30
2018-01-30T14:20:11.569Z,84.40
2018-01-30T14:22:39.802Z,84.40
2018-01-30T14:25:07.242Z,84.40
2018-01-30T14:27:34.909Z,84.40
2018-01-30T14:30:02.332Z,84.30
2018-01-30T14:32:29.763Z,83.80
2018-01-30T14:34:57.316Z,83.40
2018-01-30T14:37:24.753Z,83.10
2018-01-30T14:39:52.221Z,82.90
2018-01-30T14:42:32.427Z,82.90
2018-01-30T14:44:59.888Z,82.70
2018-01-30T14:47:27.323Z,82.60
2018-01-30T14:49:55.553Z,82.30
2018-01-30T14:52:23.018Z,82.30
2018-01-30T14:54:50.742Z,82.10
2018-01-30T14:57:18.168Z,82.30
2018-01-30T14:59:45.617Z,82.40
2018-01-30T15:02:13.076Z,82.50
2018-01-30T15:04:41.484Z,82.40
2018-01-30T15:07:13.415Z,82.70
2018-01-30T15:09:40.860Z,82.60
2018-01-30T15:12:08.564Z,82.70
2018-01-30T15:14:36.784Z,82.80
2018-01-30T15:17:04.279Z,82.80
2018-01-30T15:19:32.627Z,82.80
2018-01-30T15:22:00.093Z,82.80
2018-01-30T15:24:27.543Z,82.70
2018-01-30T15:26:55.279Z,82.70
2018-01-30T15:29:22.859Z,82.90
2018-01-30T15:31:50.294Z,83.00
2018-01-30T15:34:17.883Z,83.10
2018-01-30T15:36:45.334Z,83.20
2018-01-30T15:39:12.800Z,83.50
2018-01-30T15:41:40.279Z,83.60
2018-01-30T15:44:07.722Z,83.90
2018-01-30T15:46:35.189Z,83.80
2018-01-30T15:49:02.673Z,83.90
2018-01-30T15:51:30.180Z,84.10
2018-01-30T15:53:58.401Z,84.40
2018-01-30T15:56:26.603Z,84.70
2018-01-30T15:58:54.102Z,84.70
2018-01-30T16:01:21.552Z,84.80
2018-01-30T16:03:49.003Z,84.80
2018-01-30T16:06:16.468Z,85.00
2018-01-30T16:08:43.915Z,85.10
2018-01-30T16:11:11.356Z,85.10
2018-01-30T16:13:39.135Z,85.30
2018-01-30T16:16:06.686Z,85.40
2018-01-30T16:18:34.184Z,85.50
2018-01-30T16:21:02.502Z,85.50
2018-01-30T16:23:29.962Z,85.50
2018-01-30T16:25:58.329Z,85.80
2018-01-30T16:28:26.572Z,86.10
2018-01-30T16:30:54.008Z,86.10
2018-01-30T16:33:21.505Z,86.50
2018-01-30T16:35:49.062Z,87.00
2018-01-30T16:38:16.571Z,87.30
2018-01-30T16:40:44.008Z,87.40
2018-01-30T16:43:11.464Z,87.50
2018-01-30T16:45:38.904Z,87.50
2018-01-30T16:48:07.172Z,88.50
2018-01-30T16:50:34.673Z,87.70
2018-01-30T16:53:02.112Z,87.90
2018-01-30T16:55:30.342Z,88.20
2018-01-30T16:57:57.811Z,88.00
2018-01-30T17:00:25.244Z,88.20
2018-01-30T17:02:52.721Z,88.20
2018-01-30T17:05:20.156Z,88.20
2018-01-30T17:07:47.595Z,88.30
2018-01-30T17:10:15.487Z,88.40
2018-01-30T17:12:42.934Z,88.60
2018-01-30T17:15:10.371Z,88.60
2018-01-30T17:17:38.175Z,88.70
2018-01-30T17:20:05.612Z,88.80
2018-01-30T17:22:33.052Z,88.80
2018-01-30T17:25:00.850Z,89.00
2018-01-30T17:27:28.556Z,89.00
2018-01-30T17:29:56.766Z,89.30
2018-01-30T17:32:24.443Z,89.30
2018-01-30T17:34:51.885Z,89.50
2018-01-30T17:37:19.360Z,89.60
2018-01-30T17:39:46.800Z,89.70
2018-01-30T17:42:24.528Z,89.90
2018-01-30T17:44:51.968Z,90.00
2018-01-30T17:47:19.437Z,90.00
2018-01-30T17:49:46.948Z,90.10
2018-01-30T17:52:15.151Z,90.30
2018-01-30T17:54:42.612Z,90.30
2018-01-30T17:57:10.744Z,90.40
2018-01-30T17:59:38.974Z,90.50
2018-01-30T18:02:07.113Z,90.50
2018-01-30T18:04:34.586Z,90.60
2018-01-30T18:07:02.045Z,90.70
2018-01-30T18:09:29.532Z,90.80
2018-01-30T18:11:56.980Z,90.80
2018-01-30T18:14:24.441Z,90.90
2018-01-30T18:16:51.910Z,90.90
2018-01-30T18:19:19.349Z,91.30
2018-01-30T18:21:52.826Z,91.00
2018-01-30T18:24:20.617Z,91.10
2018-01-30T18:26:48.238Z,91.10
2018-01-30T18:29:16.568Z,91.20
2018-01-30T18:31:44.004Z,91.20
2018-01-30T18:34:11.475Z,91.30
2018-01-30T18:36:39.028Z,91.30
2018-01-30T18:39:06.469Z,91.30
2018-01-30T18:41:33.916Z,91.30
2018-01-30T18:44:01.372Z,91.30
2018-01-30T18:46:29.333Z,91.30
2018-01-30T18:48:56.793Z,91.30
2018-01-30T18:51:24.228Z,91.30
2018-01-30T18:56:43.912Z,91.30
2018-01-30T18:59:11.397Z,91.20
2018-01-30T19:01:40.192Z,91.20
2018-01-30T19:04:07.628Z,91.20
2018-01-30T19:06:35.836Z,91.50
2018-01-30T19:09:03.496Z,91.40
2018-01-30T19:11:30.916Z,91.50
2018-01-30T19:13:59.136Z,91.60
2018-01-30T19:16:27.164Z,91.50
2018-01-30T19:18:54.588Z,91.60
2018-01-30T19:21:22.085Z,91.60
2018-01-30T19:23:50.327Z,91.70
2018-01-30T19:26:17.795Z,91.70
2018-01-30T19:28:45.249Z,91.70
2018-01-30T19:31:13.104Z,91.70
2018-01-30T19:33:40.555Z,91.80
2018-01-30T19:36:09.907Z,91.80
2018-01-30T19:38:38.229Z,91.80
2018-01-30T19:41:05.675Z,91.80
2018-01-30T19:43:33.464Z,91.80
2018-01-30T19:46:00.900Z,91.80
2018-01-30T19:48:29.109Z,91.90
2018-01-30T19:51:04.469Z,91.90
2018-01-30T19:53:31.905Z,91.90
2018-01-30T19:55:59.450Z,91.90
2018-01-30T19:58:26.935Z,91.90
2018-01-30T20:00:54.380Z,92.00
2018-01-30T20:03:21.817Z,92.00
2018-01-30T20:05:49.280Z,92.10
2018-01-30T20:08:16.739Z,92.10
2018-01-30T20:10:44.237Z,92.10
2018-01-30T20:13:11.688Z,92.10
2018-01-30T20:15:39.154Z,92.10
2018-01-30T20:18:06.749Z,92.00
2018-01-30T20:20:34.183Z,92.00
2018-01-30T20:23:08.292Z,92.10
2018-01-30T20:25:36.527Z,92.10
2018-01-30T20:28:03.992Z,92.10
2018-01-30T20:30:36.660Z,92.10
2018-01-30T20:33:04.096Z,92.10
2018-01-30T20:35:32.306Z,92.20
2018-01-30T20:37:59.822Z,92.20
2018-01-30T20:40:27.952Z,92.10
2018-01-30T20:42:55.461Z,92.20
2018-01-30T20:45:22.892Z,92.20
2018-01-30T20:47:50.401Z,92.20
2018-01-30T20:50:17.827Z,92.20
2018-01-30T20:52:45.279Z,92.20
2018-01-30T20:55:12.780Z,92.20
2018-01-30T20:57:47.088Z,92.20
2018-01-30T21:00:14.518Z,92.10
2018-01-30T21:02:42.725Z,92.40
2018-01-30T21:05:10.194Z,92.10
2018-01-30T21:07:37.972Z,92.10
2018-01-30T21:10:22.255Z,92.10
2018-01-30T21:12:53.851Z,92.10
2018-01-30T21:15:21.311Z,92.10
2018-01-30T21:17:48.752Z,92.10
2018-01-30T21:23:07.081Z,92.20
2018-01-30T21:25:41.737Z,92.10
2018-01-30T21:28:09.160Z,92.10
2018-01-30T21:30:37.456Z,92.00
2018-01-30T21:33:04.892Z,92.00
2018-01-30T21:35:34.650Z,92.00
2018-01-30T21:38:02.797Z,92.20
2018-01-30T21:40:30.237Z,92.20
2018-01-30T21:42:58.713Z,92.40
2018-01-30T21:45:26.441Z,92.40
2018-01-30T21:47:53.993Z,92.50
2018-01-30T21:50:21.520Z,92.40
2018-01-30T21:52:49.420Z,92.40
2018-01-30T21:55:16.856Z,92.40
2018-01-30T21:57:44.293Z,92.30
2018-01-30T22:00:11.757Z,92.30
2018-01-30T22:02:43.193Z,92.40
2018-01-30T22:05:11.396Z,92.40
2018-01-30T22:07:38.844Z,92.40
2018-01-30T22:10:06.305Z,92.40
2018-01-30T22:12:33.773Z,92.50
2018-01-30T22:15:02.432Z,92.50
2018-01-30T22:17:30.628Z,92.50
2018-01-30T22:19:58.415Z,92.40
2018-01-30T22:22:25.857Z,92.50
2018-01-30T22:24:53.300Z,92.60
2018-01-30T22:41:39.281Z,92.80
2018-01-30T22:44:09.776Z,92.80
2018-01-30T22:46:37.203Z,92.80
